sensor_id;sensor_type;location;lat;lon;timestamp;pressure;altitude;pressure_sealevel;temperature;humidity
41254;BME280;26987;59.928;30.306;2022-07-01T00:00:40;101904.78;;;18.88;64.68
41254;BME280;26987;59.928;30.306;2022-07-01T00:03:08;101895.22;;;18.85;65.57
41254;BME280;26987;59.928;30.306;2022-07-01T00:05:37;101900.06;;;18.83;66.31
41254;BME280;26987;59.928;30.306;2022-07-01T00:08:05;101895.31;;;18.78;66.43
41254;BME280;26987;59.928;30.306;2022-07-01T00:10:33;101905.59;;;18.76;66.84
41254;BME280;26987;59.928;30.306;2022-07-01T00:13:04;101904.16;;;18.74;67.62
41254;BME280;26987;59.928;30.306;2022-07-01T00:15:32;101901.09;;;18.70;68.21
41254;BME280;26987;59.928;30.306;2022-07-01T00:18:02;101895.06;;;18.68;69.30
41254;BME280;26987;59.928;30.306;2022-07-01T00:20:31;101888.09;;;18.60;69.67
41254;BME280;26987;59.928;30.306;2022-07-01T00:23:00;101881.84;;;18.60;70.25
41254;BME280;26987;59.928;30.306;2022-07-01T00:25:28;101896.00;;;18.62;70.38
41254;BME280;26987;59.928;30.306;2022-07-01T00:27:56;101899.31;;;18.64;70.57
41254;BME280;26987;59.928;30.306;2022-07-01T00:30:24;101900.16;;;18.64;70.78
41254;BME280;26987;59.928;30.306;2022-07-01T00:32:52;101893.06;;;18.63;70.72
41254;BME280;26987;59.928;30.306;2022-07-01T00:35:22;101897.91;;;18.61;70.42
41254;BME280;26987;59.928;30.306;2022-07-01T00:37:50;101894.81;;;18.58;69.87
41254;BME280;26987;59.928;30.306;2022-07-01T00:40:18;101904.38;;;18.60;69.99
41254;BME280;26987;59.928;30.306;2022-07-01T00:42:46;101898.72;;;18.62;69.73
41254;BME280;26987;59.928;30.306;2022-07-01T00:45:14;101892.25;;;18.63;69.68
41254;BME280;26987;59.928;30.306;2022-07-01T00:47:43;101895.19;;;18.61;69.24
41254;BME280;26987;59.928;30.306;2022-07-01T00:50:12;101903.81;;;18.70;68.65
41254;BME280;26987;59.928;30.306;2022-07-01T00:52:44;101907.00;;;18.67;67.46
41254;BME280;26987;59.928;30.306;2022-07-01T00:55:13;101908.06;;;18.66;66.67
41254;BME280;26987;59.928;30.306;2022-07-01T00:57:43;101896.00;;;18.62;66.69
41254;BME280;26987;59.928;30.306;2022-07-01T01:00:13;101901.56;;;18.67;67.00
41254;BME280;26987;59.928;30.306;2022-07-01T01:02:42;101888.69;;;18.62;67.34
41254;BME280;26987;59.928;30.306;2022-07-01T01:05:11;101900.41;;;18.75;67.67
41254;BME280;26987;59.928;30.306;2022-07-01T01:07:39;101897.31;;;18.71;67.96
41254;BME280;26987;59.928;30.306;2022-07-01T01:10:09;101906.56;;;18.82;67.28
41254;BME280;26987;59.928;30.306;2022-07-01T01:12:37;101901.34;;;18.81;67.26
41254;BME280;26987;59.928;30.306;2022-07-01T01:15:07;101908.44;;;18.82;67.70
41254;BME280;26987;59.928;30.306;2022-07-01T01:17:35;101903.22;;;18.80;67.95
41254;BME280;26987;59.928;30.306;2022-07-01T01:20:04;101892.97;;;18.70;68.23
41254;BME280;26987;59.928;30.306;2022-07-01T01:22:34;101915.03;;;18.86;68.27
41254;BME280;26987;59.928;30.306;2022-07-01T01:25:02;101913.78;;;18.88;67.85
41254;BME280;26987;59.928;30.306;2022-07-01T01:27:31;101912.00;;;18.94;67.68
41254;BME280;26987;59.928;30.306;2022-07-01T01:29:58;101918.84;;;18.97;67.59
41254;BME280;26987;59.928;30.306;2022-07-01T01:32:26;101915.78;;;19.05;67.48
41254;BME280;26987;59.928;30.306;2022-07-01T01:34:54;101911.34;;;19.11;67.39
41254;BME280;26987;59.928;30.306;2022-07-01T01:37:22;101916.06;;;19.15;67.25
41254;BME280;26987;59.928;30.306;2022-07-01T01:39:52;101908.38;;;19.24;67.04
41254;BME280;26987;59.928;30.306;2022-07-01T01:42:20;101904.59;;;19.25;67.21
41254;BME280;26987;59.928;30.306;2022-07-01T01:44:48;101916.75;;;19.35;67.10
41254;BME280;26987;59.928;30.306;2022-07-01T01:47:16;101914.47;;;19.56;66.85
41254;BME280;26987;59.928;30.306;2022-07-01T01:49:44;101919.94;;;19.97;66.43
41254;BME280;26987;59.928;30.306;2022-07-01T01:52:12;101916.19;;;20.27;65.36
41254;BME280;26987;59.928;30.306;2022-07-01T01:54:40;101914.16;;;20.51;65.11
41254;BME280;26987;59.928;30.306;2022-07-01T01:57:09;101921.78;;;20.84;64.06
41254;BME280;26987;59.928;30.306;2022-07-01T01:59:37;101911.66;;;20.96;64.48
41254;BME280;26987;59.928;30.306;2022-07-01T02:02:05;101920.09;;;21.34;65.00
41254;BME280;26987;59.928;30.306;2022-07-01T02:04:33;101919.66;;;21.82;63.40
41254;BME280;26987;59.928;30.306;2022-07-01T02:07:02;101912.00;;;22.34;61.86
41254;BME280;26987;59.928;30.306;2022-07-01T02:09:31;101924.78;;;22.89;59.62
41254;BME280;26987;59.928;30.306;2022-07-01T02:11:59;101931.28;;;22.83;60.11
41254;BME280;26987;59.928;30.306;2022-07-01T02:14:29;101929.56;;;22.71;61.34
41254;BME280;26987;59.928;30.306;2022-07-01T02:16:57;101927.91;;;22.70;62.37
41254;BME280;26987;59.928;30.306;2022-07-01T02:19:25;101920.50;;;23.03;61.70
41254;BME280;26987;59.928;30.306;2022-07-01T02:21:53;101921.63;;;23.56;60.37
41254;BME280;26987;59.928;30.306;2022-07-01T02:24:21;101927.91;;;24.26;58.12
41254;BME280;26987;59.928;30.306;2022-07-01T02:26:49;101928.75;;;24.84;55.97
41254;BME280;26987;59.928;30.306;2022-07-01T02:29:17;101928.16;;;25.28;53.98
41254;BME280;26987;59.928;30.306;2022-07-01T02:31:46;101930.72;;;25.80;52.68
41254;BME280;26987;59.928;30.306;2022-07-01T02:34:14;101934.84;;;26.28;51.18
41254;BME280;26987;59.928;30.306;2022-07-01T02:36:42;101927.41;;;26.69;50.01
41254;BME280;26987;59.928;30.306;2022-07-01T02:39:10;101939.88;;;26.91;49.09
41254;BME280;26987;59.928;30.306;2022-07-01T02:41:38;101937.47;;;27.14;48.18
41254;BME280;26987;59.928;30.306;2022-07-01T02:44:20;101932.91;;;27.53;47.20
41254;BME280;26987;59.928;30.306;2022-07-01T02:46:50;101938.47;;;27.91;46.93
41254;BME280;26987;59.928;30.306;2022-07-01T02:49:17;101939.16;;;28.02;46.26
41254;BME280;26987;59.928;30.306;2022-07-01T02:51:45;101905.56;;;28.19;45.74
41254;BME280;26987;59.928;30.306;2022-07-01T02:54:13;101944.91;;;28.78;44.88
41254;BME280;26987;59.928;30.306;2022-07-01T02:56:42;101948.06;;;28.85;44.37
41254;BME280;26987;59.928;30.306;2022-07-01T02:59:10;101950.97;;;28.94;44.28
41254;BME280;26987;59.928;30.306;2022-07-01T03:01:39;101921.56;;;29.03;43.73
41254;BME280;26987;59.928;30.306;2022-07-01T03:04:08;101947.84;;;29.29;43.66
41254;BME280;26987;59.928;30.306;2022-07-01T03:06:36;101951.44;;;29.57;43.08
41254;BME280;26987;59.928;30.306;2022-07-01T03:09:04;101948.44;;;29.82;42.35
41254;BME280;26987;59.928;30.306;2022-07-01T03:11:32;101951.59;;;30.26;42.14
41254;BME280;26987;59.928;30.306;2022-07-01T03:14:00;101950.34;;;30.55;41.22
41254;BME280;26987;59.928;30.306;2022-07-01T03:16:28;101960.53;;;30.69;41.18
41254;BME280;26987;59.928;30.306;2022-07-01T03:18:56;101957.25;;;30.90;41.08
41254;BME280;26987;59.928;30.306;2022-07-01T03:21:26;101952.16;;;31.15;40.53
41254;BME280;26987;59.928;30.306;2022-07-01T03:23:54;101951.22;;;31.28;39.87
41254;BME280;26987;59.928;30.306;2022-07-01T03:26:22;101946.72;;;31.41;39.89
41254;BME280;26987;59.928;30.306;2022-07-01T03:28:50;101952.16;;;31.55;39.59
41254;BME280;26987;59.928;30.306;2022-07-01T03:31:18;101946.13;;;31.62;39.20
41254;BME280;26987;59.928;30.306;2022-07-01T03:33:46;101955.00;;;32.00;38.99
41254;BME280;26987;59.928;30.306;2022-07-01T03:36:14;101955.63;;;32.41;38.03
41254;BME280;26987;59.928;30.306;2022-07-01T03:38:43;101959.25;;;33.07;36.96
41254;BME280;26987;59.928;30.306;2022-07-01T03:41:11;101954.44;;;33.25;36.28
41254;BME280;26987;59.928;30.306;2022-07-01T03:43:39;101970.16;;;33.51;35.89
41254;BME280;26987;59.928;30.306;2022-07-01T03:46:07;101964.16;;;33.70;35.71
41254;BME280;26987;59.928;30.306;2022-07-01T03:48:35;101972.22;;;33.84;35.31
41254;BME280;26987;59.928;30.306;2022-07-01T03:51:04;101969.25;;;33.90;34.99
41254;BME280;26987;59.928;30.306;2022-07-01T03:53:31;101976.31;;;34.08;34.68
41254;BME280;26987;59.928;30.306;2022-07-01T03:56:18;101977.94;;;34.31;34.38
41254;BME280;26987;59.928;30.306;2022-07-01T03:58:46;101961.84;;;34.70;33.83
41254;BME280;26987;59.928;30.306;2022-07-01T04:01:14;101957.59;;;35.23;32.90
41254;BME280;26987;59.928;30.306;2022-07-01T04:03:42;101957.13;;;35.46;31.81
41254;BME280;26987;59.928;30.306;2022-07-01T04:06:10;101956.06;;;35.51;30.77
41254;BME280;26987;59.928;30.306;2022-07-01T04:08:38;101951.56;;;35.71;28.90
41254;BME280;26987;59.928;30.306;2022-07-01T04:11:07;101952.00;;;35.60;28.74
41254;BME280;26987;59.928;30.306;2022-07-01T04:13:37;101955.78;;;35.93;27.76
41254;BME280;26987;59.928;30.306;2022-07-01T04:16:05;101954.00;;;36.01;26.53
41254;BME280;26987;59.928;30.306;2022-07-01T04:18:33;101959.09;;;36.12;25.96
41254;BME280;26987;59.928;30.306;2022-07-01T04:21:02;101957.09;;;36.41;25.27
41254;BME280;26987;59.928;30.306;2022-07-01T04:23:47;101952.47;;;36.93;24.03
41254;BME280;26987;59.928;30.306;2022-07-01T04:26:15;101953.00;;;37.31;23.86
41254;BME280;26987;59.928;30.306;2022-07-01T04:28:44;101946.31;;;37.36;24.06
41254;BME280;26987;59.928;30.306;2022-07-01T04:31:12;101944.50;;;37.11;24.22
41254;BME280;26987;59.928;30.306;2022-07-01T04:33:40;101943.97;;;37.22;23.55
41254;BME280;26987;59.928;30.306;2022-07-01T04:36:09;101943.25;;;37.25;23.34
41254;BME280;26987;59.928;30.306;2022-07-01T04:38:37;101937.63;;;37.77;22.93
41254;BME280;26987;59.928;30.306;2022-07-01T04:41:05;101914.56;;;37.44;22.58
41254;BME280;26987;59.928;30.306;2022-07-01T04:43:54;101945.09;;;38.32;21.15
41254;BME280;26987;59.928;30.306;2022-07-01T04:46:22;101946.75;;;37.94;21.58
41254;BME280;26987;59.928;30.306;2022-07-01T04:48:50;101957.78;;;38.26;21.38
41254;BME280;26987;59.928;30.306;2022-07-01T04:51:18;101953.00;;;38.27;21.55
41254;BME280;26987;59.928;30.306;2022-07-01T04:53:46;101953.75;;;38.47;21.32
41254;BME280;26987;59.928;30.306;2022-07-01T04:56:14;101960.28;;;38.75;21.13
41254;BME280;26987;59.928;30.306;2022-07-01T04:58:42;101964.97;;;38.47;20.92
41254;BME280;26987;59.928;30.306;2022-07-01T05:01:12;101968.19;;;38.26;21.06
41254;BME280;26987;59.928;30.306;2022-07-01T05:03:40;101973.31;;;38.43;20.44
41254;BME280;26987;59.928;30.306;2022-07-01T05:06:08;101966.06;;;38.19;20.58
41254;BME280;26987;59.928;30.306;2022-07-01T05:08:36;101964.41;;;38.38;20.63
41254;BME280;26987;59.928;30.306;2022-07-01T05:11:04;101963.69;;;38.01;20.72
41254;BME280;26987;59.928;30.306;2022-07-01T05:13:32;101970.47;;;37.80;21.26
41254;BME280;26987;59.928;30.306;2022-07-01T05:16:00;101960.97;;;37.49;21.80
41254;BME280;26987;59.928;30.306;2022-07-01T05:18:30;101967.13;;;38.14;20.61
41254;BME280;26987;59.928;30.306;2022-07-01T05:21:15;101929.28;;;38.01;21.06
41254;BME280;26987;59.928;30.306;2022-07-01T05:24:01;101954.75;;;38.35;20.92
41254;BME280;26987;59.928;30.306;2022-07-01T05:26:29;101954.47;;;38.64;21.04
41254;BME280;26987;59.928;30.306;2022-07-01T05:28:57;101952.75;;;38.35;21.16
41254;BME280;26987;59.928;30.306;2022-07-01T05:31:25;101957.13;;;38.56;20.97
41254;BME280;26987;59.928;30.306;2022-07-01T05:33:55;101953.22;;;38.38;21.35
41254;BME280;26987;59.928;30.306;2022-07-01T05:36:23;101957.19;;;38.36;20.94
41254;BME280;26987;59.928;30.306;2022-07-01T05:38:51;101956.13;;;38.45;20.54
41254;BME280;26987;59.928;30.306;2022-07-01T05:41:19;101960.59;;;38.69;20.41
41254;BME280;26987;59.928;30.306;2022-07-01T05:43:47;101950.03;;;38.63;20.12
41254;BME280;26987;59.928;30.306;2022-07-01T05:46:15;101941.97;;;38.57;20.68
41254;BME280;26987;59.928;30.306;2022-07-01T05:48:43;101949.88;;;38.75;20.32
41254;BME280;26987;59.928;30.306;2022-07-01T05:51:12;101953.78;;;39.17;20.30
41254;BME280;26987;59.928;30.306;2022-07-01T05:53:40;101941.50;;;39.02;20.11
41254;BME280;26987;59.928;30.306;2022-07-01T05:56:10;101935.25;;;38.85;20.36
41254;BME280;26987;59.928;30.306;2022-07-01T05:58:38;101953.09;;;38.77;20.33
41254;BME280;26987;59.928;30.306;2022-07-01T06:01:06;101948.50;;;38.89;20.69
41254;BME280;26987;59.928;30.306;2022-07-01T06:03:33;101946.66;;;39.23;20.31
41254;BME280;26987;59.928;30.306;2022-07-01T06:06:01;101943.22;;;39.38;20.12
41254;BME280;26987;59.928;30.306;2022-07-01T06:08:32;101946.91;;;39.42;19.66
41254;BME280;26987;59.928;30.306;2022-07-01T06:11:00;101955.34;;;39.15;20.25
41254;BME280;26987;59.928;30.306;2022-07-01T06:13:28;101943.56;;;39.32;20.58
41254;BME280;26987;59.928;30.306;2022-07-01T06:15:56;101932.34;;;39.05;20.68
41254;BME280;26987;59.928;30.306;2022-07-01T06:18:25;101942.97;;;38.69;20.94
41254;BME280;26987;59.928;30.306;2022-07-01T06:20:53;101940.56;;;38.94;20.82
41254;BME280;26987;59.928;30.306;2022-07-01T06:23:23;101937.56;;;38.80;21.05
41254;BME280;26987;59.928;30.306;2022-07-01T06:25:52;101947.63;;;38.84;20.46
41254;BME280;26987;59.928;30.306;2022-07-01T06:28:20;101942.19;;;38.95;20.68
41254;BME280;26987;59.928;30.306;2022-07-01T06:30:48;101948.25;;;38.74;23.48
41254;BME280;26987;59.928;30.306;2022-07-01T06:33:16;101935.78;;;38.48;24.42
41254;BME280;26987;59.928;30.306;2022-07-01T06:35:44;101937.09;;;38.31;23.93
41254;BME280;26987;59.928;30.306;2022-07-01T06:38:12;101936.66;;;38.29;23.24
41254;BME280;26987;59.928;30.306;2022-07-01T06:40:40;101929.97;;;37.94;24.23
41254;BME280;26987;59.928;30.306;2022-07-01T06:43:10;101936.59;;;37.85;23.80
41254;BME280;26987;59.928;30.306;2022-07-01T06:45:38;101928.31;;;38.13;23.28
41254;BME280;26987;59.928;30.306;2022-07-01T06:48:06;101934.22;;;38.07;23.26
41254;BME280;26987;59.928;30.306;2022-07-01T06:50:34;101939.69;;;38.00;23.41
41254;BME280;26987;59.928;30.306;2022-07-01T06:53:02;101938.94;;;38.03;23.78
41254;BME280;26987;59.928;30.306;2022-07-01T06:55:30;101935.13;;;37.92;24.25
41254;BME280;26987;59.928;30.306;2022-07-01T06:57:58;101933.25;;;37.60;24.92
41254;BME280;26987;59.928;30.306;2022-07-01T07:00:27;101935.44;;;37.51;24.42
41254;BME280;26987;59.928;30.306;2022-07-01T07:02:56;101931.84;;;37.50;24.57
41254;BME280;26987;59.928;30.306;2022-07-01T07:05:24;101931.00;;;37.30;25.04
41254;BME280;26987;59.928;30.306;2022-07-01T07:07:51;101928.47;;;37.08;25.14
41254;BME280;26987;59.928;30.306;2022-07-01T07:10:20;101919.59;;;36.87;25.90
41254;BME280;26987;59.928;30.306;2022-07-01T07:12:47;101912.53;;;36.44;27.00
41254;BME280;26987;59.928;30.306;2022-07-01T07:15:16;101919.25;;;35.57;30.00
41254;BME280;26987;59.928;30.306;2022-07-01T07:17:46;101924.78;;;34.57;31.44
41254;BME280;26987;59.928;30.306;2022-07-01T07:20:14;101923.56;;;34.33;32.78
41254;BME280;26987;59.928;30.306;2022-07-01T07:22:42;101917.84;;;33.96;33.82
41254;BME280;26987;59.928;30.306;2022-07-01T07:25:10;101914.88;;;33.80;34.56
41254;BME280;26987;59.928;30.306;2022-07-01T07:27:38;101906.72;;;33.23;35.25
41254;BME280;26987;59.928;30.306;2022-07-01T07:30:07;101903.34;;;32.69;34.84
41254;BME280;26987;59.928;30.306;2022-07-01T07:32:35;101904.88;;;32.49;33.55
41254;BME280;26987;59.928;30.306;2022-07-01T07:35:05;101908.38;;;32.76;34.93
41254;BME280;26987;59.928;30.306;2022-07-01T07:37:33;101908.59;;;32.62;34.98
41254;BME280;26987;59.928;30.306;2022-07-01T07:40:03;101905.38;;;32.33;36.45
41254;BME280;26987;59.928;30.306;2022-07-01T07:42:32;101900.34;;;31.82;37.81
41254;BME280;26987;59.928;30.306;2022-07-01T07:45:01;101889.84;;;31.44;38.07
41254;BME280;26987;59.928;30.306;2022-07-01T07:47:33;101903.91;;;31.56;37.72
41254;BME280;26987;59.928;30.306;2022-07-01T07:50:04;101905.59;;;31.34;37.69
41254;BME280;26987;59.928;30.306;2022-07-01T07:52:33;101897.59;;;31.15;37.70
41254;BME280;26987;59.928;30.306;2022-07-01T07:55:03;101874.72;;;30.92;38.05
41254;BME280;26987;59.928;30.306;2022-07-01T07:57:34;101911.19;;;30.94;37.97
41254;BME280;26987;59.928;30.306;2022-07-01T08:00:04;101886.34;;;30.48;38.12
41254;BME280;26987;59.928;30.306;2022-07-01T08:02:41;101905.41;;;30.50;38.76
41254;BME280;26987;59.928;30.306;2022-07-01T08:05:15;101917.06;;;30.38;39.17
41254;BME280;26987;59.928;30.306;2022-07-01T08:07:44;101895.94;;;30.19;39.50
41254;BME280;26987;59.928;30.306;2022-07-01T08:10:13;101906.81;;;30.01;40.27
41254;BME280;26987;59.928;30.306;2022-07-01T08:12:42;101913.66;;;30.04;40.33
41254;BME280;26987;59.928;30.306;2022-07-01T08:15:11;101902.03;;;29.93;40.08
41254;BME280;26987;59.928;30.306;2022-07-01T08:17:39;101899.78;;;29.95;39.18
41254;BME280;26987;59.928;30.306;2022-07-01T08:20:08;101902.63;;;30.04;39.94
41254;BME280;26987;59.928;30.306;2022-07-01T08:22:37;101905.06;;;30.05;39.68
41254;BME280;26987;59.928;30.306;2022-07-01T08:25:06;101888.94;;;29.99;39.74
41254;BME280;26987;59.928;30.306;2022-07-01T08:27:34;101887.22;;;30.12;39.15
41254;BME280;26987;59.928;30.306;2022-07-01T08:30:03;101890.66;;;30.31;39.47
41254;BME280;26987;59.928;30.306;2022-07-01T08:32:32;101892.91;;;30.29;38.60
41254;BME280;26987;59.928;30.306;2022-07-01T08:35:01;101892.47;;;30.36;38.47
41254;BME280;26987;59.928;30.306;2022-07-01T08:37:32;101884.91;;;30.51;36.95
41254;BME280;26987;59.928;30.306;2022-07-01T08:40:03;101893.28;;;30.68;36.53
41254;BME280;26987;59.928;30.306;2022-07-01T08:42:33;101885.22;;;30.49;36.70
41254;BME280;26987;59.928;30.306;2022-07-01T08:45:02;101874.69;;;30.28;36.78
41254;BME280;26987;59.928;30.306;2022-07-01T08:47:36;101896.09;;;30.45;35.93
41254;BME280;26987;59.928;30.306;2022-07-01T08:50:17;101886.38;;;30.25;36.05
41254;BME280;26987;59.928;30.306;2022-07-01T08:52:46;101890.44;;;30.28;36.25
41254;BME280;26987;59.928;30.306;2022-07-01T08:55:16;101884.97;;;30.37;35.62
41254;BME280;26987;59.928;30.306;2022-07-01T08:57:45;101883.50;;;30.30;35.79
41254;BME280;26987;59.928;30.306;2022-07-01T09:00:20;101888.19;;;30.30;35.36
41254;BME280;26987;59.928;30.306;2022-07-01T09:02:55;101869.19;;;30.14;35.92
41254;BME280;26987;59.928;30.306;2022-07-01T09:05:25;101880.97;;;30.20;36.62
41254;BME280;26987;59.928;30.306;2022-07-01T09:07:58;101884.25;;;30.08;36.86
41254;BME280;26987;59.928;30.306;2022-07-01T09:10:28;101855.22;;;29.74;37.68
41254;BME280;26987;59.928;30.306;2022-07-01T09:13:04;101887.59;;;29.96;38.43
41254;BME280;26987;59.928;30.306;2022-07-01T09:15:34;101883.81;;;29.92;38.34
41254;BME280;26987;59.928;30.306;2022-07-01T09:18:04;101885.19;;;30.03;38.12
41254;BME280;26987;59.928;30.306;2022-07-01T09:20:34;101851.72;;;29.82;37.78
41254;BME280;26987;59.928;30.306;2022-07-01T09:23:04;101875.28;;;30.02;37.96
41254;BME280;26987;59.928;30.306;2022-07-01T09:25:38;101842.81;;;29.85;37.85
41254;BME280;26987;59.928;30.306;2022-07-01T09:28:11;101877.09;;;30.07;38.45
41254;BME280;26987;59.928;30.306;2022-07-01T09:30:42;101878.03;;;30.02;38.50
41254;BME280;26987;59.928;30.306;2022-07-01T09:33:13;101892.81;;;29.98;39.01
41254;BME280;26987;59.928;30.306;2022-07-01T09:35:42;101867.59;;;29.76;38.51
41254;BME280;26987;59.928;30.306;2022-07-01T09:38:12;101881.59;;;29.80;38.58
41254;BME280;26987;59.928;30.306;2022-07-01T09:40:50;101870.94;;;29.87;37.67
41254;BME280;26987;59.928;30.306;2022-07-01T09:43:20;101870.19;;;29.73;37.18
41254;BME280;26987;59.928;30.306;2022-07-01T09:45:53;101871.31;;;29.71;35.72
41254;BME280;26987;59.928;30.306;2022-07-01T09:48:23;101871.81;;;29.74;35.36
41254;BME280;26987;59.928;30.306;2022-07-01T09:50:51;101869.72;;;29.79;33.65
41254;BME280;26987;59.928;30.306;2022-07-01T09:53:20;101864.31;;;29.88;34.06
41254;BME280;26987;59.928;30.306;2022-07-01T09:55:49;101857.56;;;30.03;33.41
41254;BME280;26987;59.928;30.306;2022-07-01T09:58:18;101859.38;;;30.08;33.29
41254;BME280;26987;59.928;30.306;2022-07-01T10:00:46;101863.19;;;30.12;33.23
41254;BME280;26987;59.928;30.306;2022-07-01T10:03:14;101861.81;;;30.24;33.48
41254;BME280;26987;59.928;30.306;2022-07-01T10:05:48;101867.38;;;30.32;32.95
41254;BME280;26987;59.928;30.306;2022-07-01T10:08:46;101860.56;;;30.62;32.81
41254;BME280;26987;59.928;30.306;2022-07-01T10:14:21;101860.09;;;30.37;32.94
41254;BME280;26987;59.928;30.306;2022-07-01T10:16:52;101853.56;;;30.32;33.05
41254;BME280;26987;59.928;30.306;2022-07-01T10:19:41;101863.75;;;30.55;33.38
41254;BME280;26987;59.928;30.306;2022-07-01T10:22:27;101862.97;;;30.54;33.78
41254;BME280;26987;59.928;30.306;2022-07-01T10:25:39;101856.88;;;30.75;33.91
41254;BME280;26987;59.928;30.306;2022-07-01T10:28:22;101861.53;;;30.66;34.49
41254;BME280;26987;59.928;30.306;2022-07-01T10:30:58;101858.09;;;30.60;34.47
41254;BME280;26987;59.928;30.306;2022-07-01T10:33:42;101862.19;;;30.63;34.83
41254;BME280;26987;59.928;30.306;2022-07-01T10:36:27;101833.94;;;30.43;34.92
41254;BME280;26987;59.928;30.306;2022-07-01T10:39:19;101843.78;;;30.58;35.93
41254;BME280;26987;59.928;30.306;2022-07-01T10:41:57;101856.22;;;30.38;37.21
41254;BME280;26987;59.928;30.306;2022-07-01T10:44:27;101870.50;;;30.40;37.65
41254;BME280;26987;59.928;30.306;2022-07-01T10:47:01;101868.56;;;30.40;38.06
41254;BME280;26987;59.928;30.306;2022-07-01T10:50:00;101867.41;;;30.64;37.08
41254;BME280;26987;59.928;30.306;2022-07-01T10:52:31;101872.81;;;30.38;37.25
41254;BME280;26987;59.928;30.306;2022-07-01T10:55:02;101872.34;;;30.44;37.47
41254;BME280;26987;59.928;30.306;2022-07-01T10:57:33;101862.91;;;30.45;37.15
41254;BME280;26987;59.928;30.306;2022-07-01T11:00:33;101871.16;;;30.68;36.45
41254;BME280;26987;59.928;30.306;2022-07-01T11:03:13;101864.63;;;30.64;35.58
41254;BME280;26987;59.928;30.306;2022-07-01T11:05:43;101866.88;;;30.62;35.16
41254;BME280;26987;59.928;30.306;2022-07-01T11:08:12;101862.47;;;30.52;35.27
41254;BME280;26987;59.928;30.306;2022-07-01T11:10:41;101862.72;;;30.42;35.72
41254;BME280;26987;59.928;30.306;2022-07-01T11:13:22;101863.91;;;30.50;35.78
41254;BME280;26987;59.928;30.306;2022-07-01T11:19:01;101855.59;;;30.18;36.20
41254;BME280;26987;59.928;30.306;2022-07-01T11:21:46;101867.53;;;30.27;36.59
41254;BME280;26987;59.928;30.306;2022-07-01T11:24:23;101852.28;;;30.16;36.76
41254;BME280;26987;59.928;30.306;2022-07-01T11:27:00;101836.31;;;30.13;36.71
41254;BME280;26987;59.928;30.306;2022-07-01T11:29:28;101853.56;;;30.32;36.27
41254;BME280;26987;59.928;30.306;2022-07-01T11:31:58;101858.97;;;30.38;35.35
41254;BME280;26987;59.928;30.306;2022-07-01T11:34:27;101854.06;;;30.34;36.09
41254;BME280;26987;59.928;30.306;2022-07-01T11:36:56;101856.00;;;30.34;35.63
41254;BME280;26987;59.928;30.306;2022-07-01T11:39:41;101843.81;;;30.35;35.48
41254;BME280;26987;59.928;30.306;2022-07-01T11:42:10;101845.91;;;30.29;35.81
41254;BME280;26987;59.928;30.306;2022-07-01T11:44:41;101846.53;;;30.26;35.84
41254;BME280;26987;59.928;30.306;2022-07-01T11:47:12;101842.50;;;30.32;35.97
41254;BME280;26987;59.928;30.306;2022-07-01T11:49:50;101834.41;;;30.36;35.15
41254;BME280;26987;59.928;30.306;2022-07-01T11:52:19;101822.31;;;30.32;35.59
41254;BME280;26987;59.928;30.306;2022-07-01T11:54:49;101819.22;;;30.33;35.92
41254;BME280;26987;59.928;30.306;2022-07-01T11:57:19;101833.81;;;30.48;34.74
41254;BME280;26987;59.928;30.306;2022-07-01T11:59:52;101832.75;;;30.35;34.55
41254;BME280;26987;59.928;30.306;2022-07-01T12:02:23;101836.13;;;30.32;34.69
41254;BME280;26987;59.928;30.306;2022-07-01T12:04:52;101827.69;;;30.28;35.05
41254;BME280;26987;59.928;30.306;2022-07-01T12:07:22;101831.72;;;30.22;34.95
41254;BME280;26987;59.928;30.306;2022-07-01T12:09:51;101839.59;;;30.15;35.26
41254;BME280;26987;59.928;30.306;2022-07-01T12:12:21;101844.09;;;30.02;36.04
41254;BME280;26987;59.928;30.306;2022-07-01T12:14:51;101844.97;;;29.88;36.41
41254;BME280;26987;59.928;30.306;2022-07-01T12:17:21;101833.94;;;29.74;36.43
41254;BME280;26987;59.928;30.306;2022-07-01T12:19:51;101826.81;;;29.73;35.86
41254;BME280;26987;59.928;30.306;2022-07-01T12:22:21;101834.94;;;29.78;35.54
41254;BME280;26987;59.928;30.306;2022-07-01T12:24:52;101840.38;;;29.83;35.92
41254;BME280;26987;59.928;30.306;2022-07-01T12:27:22;101832.75;;;29.66;36.17
41254;BME280;26987;59.928;30.306;2022-07-01T12:29:52;101847.69;;;29.65;36.23
41254;BME280;26987;59.928;30.306;2022-07-01T12:32:23;101810.25;;;29.45;36.25
41254;BME280;26987;59.928;30.306;2022-07-01T12:34:53;101846.25;;;29.68;36.40
41254;BME280;26987;59.928;30.306;2022-07-01T12:37:27;101828.41;;;29.74;36.80
41254;BME280;26987;59.928;30.306;2022-07-01T12:39:57;101845.91;;;29.83;37.11
41254;BME280;26987;59.928;30.306;2022-07-01T12:42:30;101853.66;;;29.81;36.78
41254;BME280;26987;59.928;30.306;2022-07-01T12:45:00;101848.94;;;29.59;35.79
41254;BME280;26987;59.928;30.306;2022-07-01T12:47:33;101849.31;;;29.66;36.37
41254;BME280;26987;59.928;30.306;2022-07-01T12:50:18;101847.38;;;29.67;36.58
41254;BME280;26987;59.928;30.306;2022-07-01T12:52:58;101793.75;;;29.31;36.88
41254;BME280;26987;59.928;30.306;2022-07-01T12:55:28;101833.81;;;29.56;36.17
41254;BME280;26987;59.928;30.306;2022-07-01T12:57:59;101845.72;;;29.66;36.24
41254;BME280;26987;59.928;30.306;2022-07-01T13:00:28;101817.50;;;29.55;35.15
41254;BME280;26987;59.928;30.306;2022-07-01T13:03:00;101836.88;;;29.78;35.28